Wudaoliang, China
Current Conditions -  °F | °C
As of 3:20 PM on Saturday 29 Nov 2014 (Local Time) from VQPR Reporting Station
Scattered Clouds Scattered Clouds  
Wind Chill: 57°   Ceiling: Unl
Heat Index: 57°   Visibility: 4mi
Dew Point: 32°   Wind: 15mph
Humidity: 38%   Direction: 140°SE
Pressure: 30"   Gusts: NA
Location:  35.22°N, 93.08°E
Report Text: VQPR 290720Z 14013KT 6000 SCT015 SCT040 14/M00 Q1016 NOSIG
Loading
Personal Weather Stations






























Interactive Weather Map New forecast layout! Learn more

10-Day Weather Forecast

Advertisements
Track Severe Weather on mobile